Richwood, Minnesota
Current Conditions -  °F | °C
As of 3:15 AM on Sunday 21 Dec 2014 (Local Time) from KDTL Reporting Station
Haze Haze  
Wind Chill: 19°   Ceiling: 400
Heat Index: 30°   Visibility: 4mi
Dew Point: 30°   Wind: 15mph
Humidity: 100%   Direction: 190°S
Pressure: 29.84"   Gusts: NA
Location:  46.97°N, 95.82°W
Report Text: KDTL 210915Z AUTO 19013KT 4SM BR OVC004 M01/M01 A2984 RMK AO2
Loading
Personal Weather Stations






























Interactive Weather Map New forecast layout! Learn more

10-Day Weather Forecast

Advertisements
Track Severe Weather on mobile